createdAt,value
2022-09-14T00:00:13.301Z,2.87
2022-09-14T00:02:42.874Z,2.43
2022-09-14T00:05:12.590Z,2.70
2022-09-14T00:07:42.387Z,2.77
2022-09-14T00:10:12.157Z,3.40
2022-09-14T00:12:42.127Z,3.30
2022-09-14T00:15:11.993Z,2.53
2022-09-14T00:17:41.780Z,2.97
2022-09-14T00:20:11.892Z,3.10
2022-09-14T00:22:42.062Z,2.80
2022-09-14T00:25:11.807Z,3.37
2022-09-14T00:27:41.591Z,3.63
2022-09-14T00:30:12.065Z,3.53
2022-09-14T00:32:42.113Z,3.10
2022-09-14T00:35:11.696Z,3.00
2022-09-14T00:37:41.498Z,3.27
2022-09-14T00:40:12.494Z,3.60
2022-09-14T00:45:16.872Z,3.42
2022-09-14T00:47:50.008Z,2.70
2022-09-14T00:50:20.259Z,3.43
2022-09-14T00:52:51.564Z,3.20
2022-09-14T00:55:24.151Z,2.93
2022-09-14T00:57:55.338Z,3.07
2022-09-14T01:00:27.171Z,3.62
2022-09-14T01:02:57.494Z,3.27
2022-09-14T01:05:44.777Z,2.80
2022-09-14T01:08:17.592Z,2.65
2022-09-14T01:10:59.589Z,3.63
2022-09-14T01:13:44.448Z,3.37
2022-09-14T01:16:46.178Z,3.47
2022-09-14T01:19:19.108Z,3.50
2022-09-14T01:21:51.250Z,3.45
2022-09-14T01:24:40.445Z,3.73
2022-09-14T01:27:20.715Z,3.90
2022-09-14T01:29:56.592Z,3.70
2022-09-14T01:32:41.244Z,3.87
2022-09-14T01:35:22.894Z,3.33
2022-09-14T01:37:55.754Z,3.03
2022-09-14T01:40:46.945Z,4.00
2022-09-14T01:45:59.273Z,3.42
2022-09-14T01:48:35.675Z,3.17
2022-09-14T01:51:09.719Z,3.75
2022-09-14T01:53:42.739Z,3.87
2022-09-14T01:56:21.126Z,2.77
2022-09-14T01:58:59.585Z,3.00
2022-09-14T02:01:41.147Z,3.13
2022-09-14T02:04:14.116Z,2.47
2022-09-14T02:06:47.239Z,3.50
2022-09-14T02:09:19.879Z,2.93
2022-09-14T02:11:50.115Z,2.70
2022-09-14T02:14:19.758Z,4.03
2022-09-14T02:16:49.608Z,3.67
2022-09-14T02:19:23.538Z,3.70
2022-09-14T02:21:51.166Z,3.00
2022-09-14T02:24:21.384Z,3.57
2022-09-14T02:26:53.515Z,3.85
2022-09-14T02:29:23.203Z,3.90
2022-09-14T02:31:56.317Z,3.93
2022-09-14T02:34:44.080Z,3.07
2022-09-14T02:37:16.613Z,3.67
2022-09-14T02:39:55.461Z,3.87
2022-09-14T02:42:37.289Z,3.70
2022-09-14T02:45:30.936Z,3.80
2022-09-14T02:48:09.857Z,4.53
2022-09-14T02:50:51.208Z,3.63
2022-09-14T02:53:40.069Z,4.00
2022-09-14T02:56:12.225Z,3.67
2022-09-14T02:58:44.986Z,4.05
2022-09-14T03:01:20.955Z,3.83
2022-09-14T03:03:51.531Z,3.70
2022-09-14T03:06:21.373Z,4.27
2022-09-14T03:08:51.228Z,3.50
2022-09-14T03:11:21.098Z,3.83
2022-09-14T03:13:50.993Z,4.30
2022-09-14T03:16:21.230Z,3.00
2022-09-14T03:18:51.403Z,3.60
2022-09-14T03:21:21.010Z,3.47
2022-09-14T03:23:54.767Z,3.87
2022-09-14T03:26:25.791Z,4.00
2022-09-14T03:31:27.543Z,3.27
2022-09-14T03:33:59.476Z,3.93
2022-09-14T03:36:31.707Z,2.83
2022-09-14T03:39:02.180Z,4.20
2022-09-14T03:41:31.757Z,3.40
2022-09-14T03:44:01.619Z,3.60
2022-09-14T03:46:31.508Z,3.73
2022-09-14T03:49:01.587Z,3.92
2022-09-14T03:51:31.387Z,3.27
2022-09-14T03:54:02.599Z,3.75
2022-09-14T03:56:32.501Z,3.10
2022-09-14T03:59:03.222Z,3.40
2022-09-14T04:01:34.765Z,3.33
2022-09-14T04:04:05.540Z,3.90
2022-09-14T04:06:36.549Z,4.62
2022-09-14T04:09:26.091Z,3.37
2022-09-14T04:11:55.896Z,4.03
2022-09-14T04:14:26.134Z,3.30
2022-09-14T04:16:56.893Z,3.23
2022-09-14T04:19:26.769Z,3.65
2022-09-14T04:21:56.564Z,3.33
2022-09-14T04:24:30.231Z,2.83
2022-09-14T04:26:57.887Z,3.70
2022-09-14T04:29:29.409Z,3.57
2022-09-14T04:31:59.208Z,3.10
2022-09-14T04:34:29.109Z,3.70
2022-09-14T04:36:58.902Z,4.17
2022-09-14T04:39:28.799Z,4.43
2022-09-14T04:41:58.873Z,4.10
2022-09-14T04:44:28.830Z,3.20
2022-09-14T04:46:58.743Z,3.23
2022-09-14T04:49:28.871Z,3.45
2022-09-14T04:51:58.752Z,3.30
2022-09-14T04:54:28.604Z,3.40
2022-09-14T04:56:58.718Z,2.92
2022-09-14T04:59:28.520Z,3.33
2022-09-14T05:01:58.400Z,3.37
2022-09-14T05:04:28.257Z,3.90
2022-09-14T05:06:58.066Z,3.53
2022-09-14T05:09:28.037Z,3.87
2022-09-14T05:11:57.704Z,3.20
2022-09-14T05:14:27.560Z,3.47
2022-09-14T05:16:59.005Z,3.73
2022-09-14T05:19:28.566Z,4.47
2022-09-14T05:21:58.378Z,3.58
2022-09-14T05:24:28.334Z,3.37
2022-09-14T05:27:00.978Z,3.03
2022-09-14T05:29:30.042Z,3.97
2022-09-14T05:32:00.409Z,3.73
2022-09-14T05:34:30.073Z,4.53
2022-09-14T05:36:59.885Z,4.37
2022-09-14T05:39:29.672Z,5.23
2022-09-14T05:41:59.639Z,4.87
2022-09-14T05:44:29.731Z,4.72
2022-09-14T05:46:59.529Z,4.87
2022-09-14T05:49:29.986Z,5.00
2022-09-14T05:51:59.532Z,4.47
2022-09-14T05:54:29.468Z,4.80
2022-09-14T05:56:59.273Z,4.43
2022-09-14T05:59:30.698Z,4.33
2022-09-14T06:02:00.639Z,5.10
2022-09-14T06:04:30.468Z,4.50
2022-09-14T06:07:17.924Z,3.97
2022-09-14T06:12:01.831Z,3.83
2022-09-14T06:14:31.637Z,4.03
2022-09-14T06:17:03.443Z,4.33
2022-09-14T06:19:33.726Z,5.05
2022-09-14T06:22:03.550Z,5.10
2022-09-14T06:24:33.414Z,4.23
2022-09-14T06:27:03.575Z,4.17
2022-09-14T06:29:33.659Z,3.85
2022-09-14T06:32:03.700Z,4.67
2022-09-14T06:34:34.581Z,4.00
2022-09-14T06:37:04.092Z,4.40
2022-09-14T06:39:34.259Z,4.37
2022-09-14T06:42:03.846Z,4.03
2022-09-14T06:44:34.872Z,4.57
2022-09-14T06:49:33.248Z,4.90
2022-09-14T06:52:03.188Z,3.60
2022-09-14T06:54:32.971Z,3.63
2022-09-14T06:57:03.545Z,4.33
2022-09-14T06:59:33.037Z,4.47
2022-09-14T07:02:02.856Z,3.47
2022-09-14T07:04:32.655Z,4.07
2022-09-14T07:07:02.517Z,3.40
2022-09-14T07:09:32.328Z,3.27
2022-09-14T07:12:02.642Z,3.42
2022-09-14T07:14:32.599Z,3.30
2022-09-14T07:17:02.378Z,3.20
2022-09-14T07:19:32.478Z,3.20
2022-09-14T07:22:02.489Z,2.90
2022-09-14T07:24:32.331Z,2.77
2022-09-14T07:27:03.193Z,2.42
2022-09-14T07:29:33.336Z,2.87
2022-09-14T07:32:03.366Z,1.63
2022-09-14T07:34:33.207Z,1.90
2022-09-14T07:37:04.725Z,2.17
2022-09-14T07:39:34.545Z,2.00
2022-09-14T07:42:04.446Z,2.43
2022-09-14T07:44:34.309Z,2.80
2022-09-14T07:47:04.203Z,1.77
2022-09-14T07:49:34.010Z,1.83
2022-09-14T07:52:04.343Z,1.75
2022-09-14T07:54:34.563Z,1.60
2022-09-14T07:57:04.736Z,1.37
2022-09-14T07:59:36.439Z,1.87
2022-09-14T08:02:11.987Z,0.90
2022-09-14T08:04:42.428Z,1.17
2022-09-14T08:07:11.308Z,1.57
2022-09-14T08:09:40.400Z,1.33
2022-09-14T08:12:09.606Z,0.87
2022-09-14T08:14:39.039Z,1.00
2022-09-14T08:17:08.006Z,0.80
2022-09-14T08:19:37.878Z,1.40
2022-09-14T08:22:06.751Z,1.15
2022-09-14T08:24:35.855Z,1.00
2022-09-14T08:27:06.310Z,1.10
2022-09-14T08:29:35.695Z,1.10
2022-09-14T08:32:04.957Z,1.50
2022-09-14T08:34:35.550Z,1.13
2022-09-14T08:37:04.370Z,2.00
2022-09-14T08:39:33.547Z,0.90
2022-09-14T08:42:03.607Z,1.10
2022-09-14T08:44:38.772Z,0.97
2022-09-14T08:47:19.437Z,1.03
2022-09-14T08:49:57.605Z,0.60
2022-09-14T08:52:35.512Z,0.82
2022-09-14T08:55:25.570Z,1.20
2022-09-14T08:58:06.308Z,1.47
2022-09-14T09:00:44.529Z,1.10
2022-09-14T09:03:28.677Z,1.17
2022-09-14T09:06:16.410Z,1.15
2022-09-14T09:08:54.410Z,0.90
2022-09-14T09:11:26.287Z,1.60
2022-09-14T09:13:56.744Z,1.17
2022-09-14T09:16:28.823Z,1.10
2022-09-14T09:19:06.662Z,1.00
2022-09-14T09:21:38.791Z,0.90
2022-09-14T09:24:28.769Z,1.00
2022-09-14T09:26:59.906Z,1.10
2022-09-14T09:29:29.205Z,0.70
2022-09-14T09:32:16.297Z,1.25
2022-09-14T09:35:05.249Z,0.87
2022-09-14T09:37:53.127Z,1.23
2022-09-14T09:40:25.822Z,1.20
2022-09-14T09:43:13.435Z,1.33
2022-09-14T09:45:52.210Z,1.47
2022-09-14T09:48:28.136Z,1.52
2022-09-14T09:51:28.120Z,1.10
2022-09-14T09:54:10.516Z,1.10
2022-09-14T09:56:43.604Z,0.93
2022-09-14T09:59:37.957Z,0.80
2022-09-14T10:02:32.634Z,1.30
2022-09-14T10:05:13.763Z,1.17
2022-09-14T10:07:56.172Z,1.17
2022-09-14T10:10:43.038Z,1.67
2022-09-14T10:13:28.641Z,1.63
2022-09-14T10:16:10.590Z,1.22
2022-09-14T10:18:46.878Z,1.70
2022-09-14T10:21:17.704Z,2.67
2022-09-14T10:23:49.564Z,1.00
2022-09-14T10:26:22.222Z,1.37
2022-09-14T10:28:52.769Z,1.50
2022-09-14T10:31:28.178Z,1.63
2022-09-14T10:33:58.936Z,1.23
2022-09-14T10:36:32.447Z,1.67
2022-09-14T10:39:26.141Z,1.53
2022-09-14T10:42:26.958Z,1.20
2022-09-14T10:45:14.882Z,1.00
2022-09-14T10:47:50.484Z,1.70
2022-09-14T10:50:44.324Z,1.37
2022-09-14T10:53:50.462Z,1.00
2022-09-14T10:56:31.474Z,1.50
2022-09-14T10:59:04.331Z,1.47
2022-09-14T11:01:52.113Z,1.20
2022-09-14T11:04:45.496Z,1.87
2022-09-14T11:07:20.873Z,1.30
2022-09-14T11:10:02.571Z,3.13
2022-09-14T11:12:41.335Z,1.13
2022-09-14T11:15:26.171Z,1.75
2022-09-14T11:18:17.195Z,1.77
2022-09-14T11:21:01.813Z,1.10
2022-09-14T11:23:43.460Z,1.43
2022-09-14T11:26:16.319Z,1.10
2022-09-14T11:28:57.856Z,1.50
2022-09-14T11:31:39.338Z,1.10
2022-09-14T11:34:11.891Z,1.05
2022-09-14T11:36:44.724Z,1.30
2022-09-14T11:39:20.368Z,1.20
2022-09-14T11:42:02.541Z,1.30
2022-09-14T11:44:37.872Z,1.57
2022-09-14T11:47:10.722Z,1.23
2022-09-14T11:49:57.635Z,1.83
2022-09-14T11:52:33.026Z,1.80
2022-09-14T11:55:03.856Z,1.47
2022-09-14T11:57:35.191Z,1.98
2022-09-14T12:00:11.496Z,1.67
2022-09-14T12:02:44.181Z,1.50
2022-09-14T12:05:17.019Z,2.00
2022-09-14T12:07:53.962Z,1.35
2022-09-14T12:10:23.792Z,1.80
2022-09-14T12:13:11.313Z,1.03
2022-09-14T12:15:42.092Z,1.57
2022-09-14T12:20:51.100Z,1.00
2022-09-14T12:23:45.177Z,1.10
2022-09-14T12:26:23.752Z,1.37
2022-09-14T12:28:58.715Z,1.87
2022-09-14T12:31:36.346Z,1.70
2022-09-14T12:34:24.730Z,1.17
2022-09-14T12:36:59.066Z,1.80
2022-09-14T12:39:35.011Z,1.50
2022-09-14T12:42:27.289Z,1.40
2022-09-14T12:44:57.236Z,2.07
2022-09-14T12:47:30.065Z,2.07
2022-09-14T12:50:23.146Z,2.03
2022-09-14T12:53:04.816Z,2.27
2022-09-14T12:55:47.699Z,2.00
2022-09-14T12:58:32.465Z,2.23
2022-09-14T13:01:08.348Z,1.90
2022-09-14T13:03:52.853Z,2.33
2022-09-14T13:06:23.995Z,2.50
2022-09-14T13:08:56.537Z,1.60
2022-09-14T13:11:32.050Z,2.20
2022-09-14T13:14:02.984Z,1.50
2022-09-14T13:16:47.897Z,2.27
2022-09-14T13:19:24.100Z,2.13
2022-09-14T13:21:57.200Z,2.60
2022-09-14T13:24:32.072Z,2.40
2022-09-14T13:27:03.513Z,1.57
2022-09-14T13:29:33.171Z,1.55
2022-09-14T13:32:04.274Z,2.37
2022-09-14T13:34:38.328Z,2.83
2022-09-14T13:37:08.169Z,2.27
2022-09-14T13:39:41.901Z,2.93
2022-09-14T13:42:12.042Z,2.84
2022-09-14T13:44:46.364Z,2.80
2022-09-14T13:47:18.789Z,2.55
2022-09-14T13:49:51.438Z,2.77
2022-09-14T13:52:38.964Z,1.63
2022-09-14T13:55:25.651Z,2.33
2022-09-14T13:58:16.583Z,2.57
2022-09-14T14:03:44.549Z,2.37
2022-09-14T14:06:38.575Z,3.13
2022-09-14T14:09:12.001Z,3.37
2022-09-14T14:11:45.527Z,2.00
2022-09-14T14:14:28.852Z,2.77
2022-09-14T14:19:43.774Z,2.40
2022-09-14T14:22:16.446Z,2.45
2022-09-14T14:27:35.283Z,2.83
2022-09-14T14:30:09.475Z,2.98
2022-09-14T14:32:39.300Z,3.93
2022-09-14T14:35:18.321Z,3.00
2022-09-14T14:37:48.859Z,2.87
2022-09-14T14:40:20.595Z,2.70
2022-09-14T14:42:51.389Z,2.43
2022-09-14T14:45:25.966Z,2.50
2022-09-14T14:47:57.001Z,2.03
2022-09-14T14:50:33.692Z,2.27
2022-09-14T14:53:03.799Z,2.27
2022-09-14T14:55:36.674Z,3.07
2022-09-14T14:58:09.988Z,2.50
2022-09-14T15:00:39.831Z,1.80
2022-09-14T15:03:09.825Z,2.40
2022-09-14T15:05:47.184Z,2.77
2022-09-14T15:08:20.153Z,2.97
2022-09-14T15:10:51.478Z,2.60
2022-09-14T15:13:20.987Z,2.53
2022-09-14T15:15:50.809Z,2.60
2022-09-14T15:18:20.579Z,2.27
2022-09-14T15:20:50.378Z,2.10
2022-09-14T15:23:22.704Z,2.50
2022-09-14T15:25:54.310Z,2.50
2022-09-14T15:28:24.211Z,2.30
2022-09-14T15:30:56.393Z,2.37
2022-09-14T15:33:26.212Z,2.60
2022-09-14T15:35:57.553Z,2.87
2022-09-14T15:38:27.570Z,2.57
2022-09-14T15:40:57.393Z,2.77
2022-09-14T15:43:27.186Z,2.30
2022-09-14T15:45:58.511Z,2.87
2022-09-14T15:48:28.282Z,2.80
2022-09-14T15:51:00.274Z,2.45
2022-09-14T15:53:30.093Z,2.33
2022-09-14T15:55:59.914Z,2.50
2022-09-14T15:58:31.436Z,2.20
2022-09-14T16:01:02.270Z,2.57
2022-09-14T16:03:32.084Z,2.40
2022-09-14T16:06:02.124Z,3.20
2022-09-14T16:08:33.239Z,2.50
2022-09-14T16:11:04.757Z,2.87
2022-09-14T16:13:35.781Z,2.60
2022-09-14T16:16:10.924Z,3.40
2022-09-14T16:18:41.731Z,3.00
2022-09-14T16:21:24.140Z,2.60
2022-09-14T16:23:56.413Z,2.98
2022-09-14T16:26:30.581Z,2.43
2022-09-14T16:29:01.966Z,2.60
2022-09-14T16:34:06.081Z,3.15
2022-09-14T16:36:38.972Z,2.67
2022-09-14T16:39:16.198Z,2.50
2022-09-14T16:41:47.042Z,2.30
2022-09-14T16:44:19.956Z,3.10
2022-09-14T16:46:50.644Z,3.10
2022-09-14T16:49:24.980Z,2.70
2022-09-14T16:51:52.891Z,2.67
2022-09-14T16:54:24.368Z,3.00
2022-09-14T16:56:59.240Z,2.55
2022-09-14T16:59:29.090Z,3.30
2022-09-14T17:01:59.168Z,3.20
2022-09-14T17:04:29.378Z,3.93
2022-09-14T17:06:59.090Z,3.30
2022-09-14T17:09:32.930Z,2.77
2022-09-14T17:12:03.153Z,2.73
2022-09-14T17:14:34.634Z,3.60
2022-09-14T17:17:04.902Z,2.70
2022-09-14T17:19:35.108Z,2.73
2022-09-14T17:22:06.634Z,2.83
2022-09-14T17:24:36.660Z,3.50
2022-09-14T17:27:06.927Z,2.80
2022-09-14T17:29:39.517Z,2.60
2022-09-14T17:32:14.628Z,2.83
2022-09-14T17:34:44.907Z,2.90
2022-09-14T17:37:14.871Z,2.87
2022-09-14T17:39:45.150Z,2.57
2022-09-14T17:42:14.963Z,2.67
2022-09-14T17:44:45.108Z,3.03
2022-09-14T17:47:17.267Z,2.90
2022-09-14T17:49:49.920Z,3.10
2022-09-14T17:52:20.083Z,3.58
2022-09-14T17:54:53.804Z,3.60
2022-09-14T17:57:23.854Z,2.87
2022-09-14T17:59:54.077Z,3.07
2022-09-14T18:02:24.337Z,3.33
2022-09-14T18:04:55.417Z,3.33
2022-09-14T18:07:25.542Z,3.83
2022-09-14T18:09:58.678Z,3.60
2022-09-14T18:12:28.756Z,2.73
2022-09-14T18:14:59.242Z,3.45
2022-09-14T18:17:32.587Z,2.98
2022-09-14T18:20:04.696Z,2.60
2022-09-14T18:22:34.985Z,4.53
2022-09-14T18:25:10.924Z,3.10
2022-09-14T18:27:41.126Z,3.00
2022-09-14T18:30:11.652Z,3.70
2022-09-14T18:32:42.647Z,3.50
2022-09-14T18:35:14.586Z,3.20
2022-09-14T18:37:44.884Z,3.13
2022-09-14T18:40:20.008Z,2.87
2022-09-14T18:42:50.271Z,2.70
2022-09-14T18:45:21.370Z,3.20
2022-09-14T18:48:01.641Z,2.60
2022-09-14T18:50:31.697Z,2.90
2022-09-14T18:53:02.247Z,2.43
2022-09-14T18:55:34.403Z,2.07
2022-09-14T18:58:04.712Z,1.80
2022-09-14T19:00:37.853Z,2.30
2022-09-14T19:03:09.086Z,2.30
2022-09-14T19:05:42.883Z,2.80
2022-09-14T19:08:14.335Z,2.60
2022-09-14T19:10:44.346Z,2.20
2022-09-14T19:13:15.447Z,3.05
2022-09-14T19:18:16.637Z,2.77
2022-09-14T19:21:05.755Z,3.03
2022-09-14T19:23:21.851Z,2.60
2022-09-14T19:25:52.712Z,2.50
2022-09-14T19:28:22.314Z,3.07
2022-09-14T19:30:53.235Z,3.13
2022-09-14T19:33:24.355Z,3.27
2022-09-14T19:35:54.237Z,2.90
2022-09-14T19:38:24.070Z,2.75
2022-09-14T19:40:54.402Z,2.97
2022-09-14T19:43:23.928Z,2.57
2022-09-14T19:45:53.977Z,2.83
2022-09-14T19:48:26.051Z,2.37
2022-09-14T19:51:02.300Z,3.02
2022-09-14T19:53:35.567Z,2.87
2022-09-14T19:56:10.063Z,3.40
2022-09-14T19:58:43.794Z,3.05
2022-09-14T20:01:14.125Z,3.00
2022-09-14T20:03:49.408Z,3.53
2022-09-14T20:06:31.961Z,2.80
2022-09-14T20:09:04.958Z,2.27
2022-09-14T20:11:36.305Z,2.80
2022-09-14T20:14:08.915Z,2.50
2022-09-14T20:16:41.391Z,2.80
2022-09-14T20:19:13.911Z,2.20
2022-09-14T20:21:48.467Z,3.00
2022-09-14T20:24:26.434Z,2.58
2022-09-14T20:27:00.854Z,2.77
2022-09-14T20:29:35.423Z,2.57
2022-09-14T20:32:06.776Z,2.70
2022-09-14T20:34:36.601Z,2.20
2022-09-14T20:37:09.710Z,2.83
2022-09-14T20:39:41.974Z,2.80
2022-09-14T20:42:13.893Z,3.40
2022-09-14T20:44:44.142Z,3.20
2022-09-14T20:47:14.679Z,3.10
2022-09-14T20:49:44.929Z,2.85
2022-09-14T20:52:14.585Z,2.77
2022-09-14T20:54:45.578Z,3.27
2022-09-14T20:57:15.390Z,2.77
2022-09-14T20:59:45.109Z,2.87
2022-09-14T21:02:15.087Z,3.17
2022-09-14T21:04:55.407Z,3.17
2022-09-14T21:09:57.082Z,2.42
2022-09-14T21:12:27.442Z,3.17
2022-09-14T21:14:57.336Z,3.80
2022-09-14T21:17:29.078Z,3.77
2022-09-14T21:19:59.040Z,2.90
2022-09-14T21:22:45.902Z,3.83
2022-09-14T21:25:26.688Z,3.93
2022-09-14T21:27:56.596Z,4.10
2022-09-14T21:30:38.990Z,3.93
2022-09-14T21:33:08.876Z,3.90
2022-09-14T21:35:38.621Z,2.93
2022-09-14T21:38:08.866Z,3.50
2022-09-14T21:40:39.041Z,4.00
2022-09-14T21:43:08.788Z,4.33
2022-09-14T21:45:41.639Z,4.23
2022-09-14T21:48:11.420Z,4.80
2022-09-14T21:50:45.333Z,4.13
2022-09-14T21:53:13.898Z,3.90
2022-09-14T21:55:43.729Z,4.58
2022-09-14T21:58:13.344Z,4.60
2022-09-14T22:00:43.174Z,4.37
2022-09-14T22:03:12.727Z,4.40
2022-09-14T22:05:42.549Z,4.47
2022-09-14T22:08:12.836Z,4.50
2022-09-14T22:10:42.395Z,3.40
2022-09-14T22:13:12.212Z,3.37
2022-09-14T22:15:42.577Z,4.57
2022-09-14T22:18:12.209Z,3.87
2022-09-14T22:20:43.204Z,4.57
2022-09-14T22:23:14.885Z,4.22
2022-09-14T22:25:44.706Z,4.07
2022-09-14T22:28:16.235Z,3.97
2022-09-14T22:30:54.214Z,4.27
2022-09-14T22:33:26.916Z,3.53
2022-09-14T22:36:00.349Z,3.40
2022-09-14T22:38:32.181Z,3.70
2022-09-14T22:41:05.400Z,3.27
2022-09-14T22:43:35.889Z,3.33
2022-09-14T22:46:07.694Z,3.13
2022-09-14T22:48:38.689Z,3.05
2022-09-14T22:51:10.833Z,2.67
2022-09-14T22:53:40.719Z,3.30
2022-09-14T22:56:19.108Z,3.87
2022-09-14T22:58:51.820Z,3.07
2022-09-14T23:01:24.585Z,3.33
2022-09-14T23:04:03.504Z,2.30
2022-09-14T23:06:36.637Z,3.53
2022-09-14T23:09:08.553Z,4.00
2022-09-14T23:11:38.884Z,4.42
2022-09-14T23:14:08.643Z,3.97
2022-09-14T23:16:38.606Z,4.40
2022-09-14T23:19:09.262Z,4.50
2022-09-14T23:21:39.354Z,4.17
2022-09-14T23:24:08.985Z,3.67
2022-09-14T23:26:38.922Z,4.20
2022-09-14T23:29:11.605Z,4.30
2022-09-14T23:31:41.474Z,3.67
2022-09-14T23:34:11.557Z,4.43
2022-09-14T23:36:41.968Z,5.13
2022-09-14T23:39:11.894Z,4.77
2022-09-14T23:41:41.699Z,5.03
2022-09-14T23:44:12.842Z,4.60
2022-09-14T23:46:42.644Z,5.50
2022-09-14T23:49:13.653Z,5.33
2022-09-14T23:51:43.832Z,5.42
2022-09-14T23:54:13.462Z,5.37
2022-09-14T23:56:43.905Z,5.03
